sensor_id;sensor_type;location;lat;lon;timestamp;temperature;humidity
16287;DHT22;8251;53.568;10.018;2023-02-28T00:00:52;8.30;59.40
16287;DHT22;8251;53.568;10.018;2023-02-28T00:03:24;8.30;59.60
16287;DHT22;8251;53.568;10.018;2023-02-28T00:05:55;8.30;59.80
16287;DHT22;8251;53.568;10.018;2023-02-28T00:08:38;8.20;59.60
16287;DHT22;8251;53.568;10.018;2023-02-28T00:11:14;8.10;60.20
16287;DHT22;8251;53.568;10.018;2023-02-28T00:13:48;8.10;59.90
16287;DHT22;8251;53.568;10.018;2023-02-28T00:16:20;8.10;61.00
16287;DHT22;8251;53.568;10.018;2023-02-28T00:18:49;8.10;61.00
16287;DHT22;8251;53.568;10.018;2023-02-28T00:21:20;8.10;60.30
16287;DHT22;8251;53.568;10.018;2023-02-28T00:23:50;8.00;59.80
16287;DHT22;8251;53.568;10.018;2023-02-28T00:26:23;7.90;60.60
16287;DHT22;8251;53.568;10.018;2023-02-28T00:28:53;7.90;60.50
16287;DHT22;8251;53.568;10.018;2023-02-28T00:31:25;7.90;60.40
16287;DHT22;8251;53.568;10.018;2023-02-28T00:33:55;7.90;60.80
16287;DHT22;8251;53.568;10.018;2023-02-28T00:36:26;7.90;60.60
16287;DHT22;8251;53.568;10.018;2023-02-28T00:38:56;7.90;61.20
16287;DHT22;8251;53.568;10.018;2023-02-28T00:41:32;7.90;61.20
16287;DHT22;8251;53.568;10.018;2023-02-28T00:44:03;8.00;61.80
16287;DHT22;8251;53.568;10.018;2023-02-28T00:46:35;8.00;61.60
16287;DHT22;8251;53.568;10.018;2023-02-28T00:49:06;8.00;61.40
16287;DHT22;8251;53.568;10.018;2023-02-28T00:51:34;8.00;62.10
16287;DHT22;8251;53.568;10.018;2023-02-28T00:54:04;8.00;61.80
16287;DHT22;8251;53.568;10.018;2023-02-28T00:56:34;8.00;62.40
16287;DHT22;8251;53.568;10.018;2023-02-28T00:59:02;8.10;62.30
16287;DHT22;8251;53.568;10.018;2023-02-28T01:01:32;8.10;61.60
16287;DHT22;8251;53.568;10.018;2023-02-28T01:04:01;8.00;60.90
16287;DHT22;8251;53.568;10.018;2023-02-28T01:06:49;8.00;61.60
16287;DHT22;8251;53.568;10.018;2023-02-28T01:09:17;8.00;61.00
16287;DHT22;8251;53.568;10.018;2023-02-28T01:11:47;7.90;61.20
16287;DHT22;8251;53.568;10.018;2023-02-28T01:14:17;7.90;61.10
16287;DHT22;8251;53.568;10.018;2023-02-28T01:16:47;7.90;61.10
16287;DHT22;8251;53.568;10.018;2023-02-28T01:19:20;7.90;61.30
16287;DHT22;8251;53.568;10.018;2023-02-28T01:21:50;7.90;61.80
16287;DHT22;8251;53.568;10.018;2023-02-28T01:24:20;7.90;62.30
16287;DHT22;8251;53.568;10.018;2023-02-28T01:26:52;7.90;62.10
16287;DHT22;8251;53.568;10.018;2023-02-28T01:29:43;7.90;61.80
16287;DHT22;8251;53.568;10.018;2023-02-28T01:32:15;7.90;61.90
16287;DHT22;8251;53.568;10.018;2023-02-28T01:34:50;7.80;61.90
16287;DHT22;8251;53.568;10.018;2023-02-28T01:37:25;7.80;61.70
16287;DHT22;8251;53.568;10.018;2023-02-28T01:39:57;7.80;61.70
16287;DHT22;8251;53.568;10.018;2023-02-28T01:42:28;7.80;61.70
16287;DHT22;8251;53.568;10.018;2023-02-28T01:47:55;7.80;61.60
16287;DHT22;8251;53.568;10.018;2023-02-28T01:50:29;7.80;61.30
16287;DHT22;8251;53.568;10.018;2023-02-28T01:53:05;7.80;61.70
16287;DHT22;8251;53.568;10.018;2023-02-28T01:55:42;7.70;62.40
16287;DHT22;8251;53.568;10.018;2023-02-28T01:58:18;7.70;62.60
16287;DHT22;8251;53.568;10.018;2023-02-28T02:00:52;7.80;63.00
16287;DHT22;8251;53.568;10.018;2023-02-28T02:03:23;7.80;62.60
16287;DHT22;8251;53.568;10.018;2023-02-28T02:06:06;7.70;61.60
16287;DHT22;8251;53.568;10.018;2023-02-28T02:08:35;7.70;62.00
16287;DHT22;8251;53.568;10.018;2023-02-28T02:11:07;7.70;62.00
16287;DHT22;8251;53.568;10.018;2023-02-28T02:14:00;7.70;61.50
16287;DHT22;8251;53.568;10.018;2023-02-28T02:16:48;7.60;61.40
16287;DHT22;8251;53.568;10.018;2023-02-28T02:23:28;7.50;61.50
16287;DHT22;8251;53.568;10.018;2023-02-28T02:26:07;7.50;62.00
16287;DHT22;8251;53.568;10.018;2023-02-28T02:32:28;7.50;62.40
16287;DHT22;8251;53.568;10.018;2023-02-28T02:35:12;7.40;62.10
16287;DHT22;8251;53.568;10.018;2023-02-28T02:37:56;7.40;62.60
16287;DHT22;8251;53.568;10.018;2023-02-28T02:40:35;7.30;63.10
16287;DHT22;8251;53.568;10.018;2023-02-28T02:43:16;7.30;62.80
16287;DHT22;8251;53.568;10.018;2023-02-28T02:45:52;7.30;63.10
16287;DHT22;8251;53.568;10.018;2023-02-28T02:48:26;7.30;63.00
16287;DHT22;8251;53.568;10.018;2023-02-28T02:51:07;7.30;63.40
16287;DHT22;8251;53.568;10.018;2023-02-28T02:53:44;7.30;63.50
16287;DHT22;8251;53.568;10.018;2023-02-28T02:56:24;7.20;63.30
16287;DHT22;8251;53.568;10.018;2023-02-28T02:58:59;7.10;63.50
16287;DHT22;8251;53.568;10.018;2023-02-28T03:01:33;7.10;64.00
16287;DHT22;8251;53.568;10.018;2023-02-28T03:04:03;7.10;64.20
16287;DHT22;8251;53.568;10.018;2023-02-28T03:06:36;7.10;64.60
16287;DHT22;8251;53.568;10.018;2023-02-28T03:09:07;7.10;64.10
16287;DHT22;8251;53.568;10.018;2023-02-28T03:11:38;7.10;64.20
16287;DHT22;8251;53.568;10.018;2023-02-28T03:14:37;7.00;64.10
16287;DHT22;8251;53.568;10.018;2023-02-28T03:20:12;6.90;64.50
16287;DHT22;8251;53.568;10.018;2023-02-28T03:23:07;6.90;65.00
16287;DHT22;8251;53.568;10.018;2023-02-28T03:25:44;6.90;65.00
16287;DHT22;8251;53.568;10.018;2023-02-28T03:28:19;6.80;64.70
16287;DHT22;8251;53.568;10.018;2023-02-28T03:30:53;6.70;65.50
16287;DHT22;8251;53.568;10.018;2023-02-28T03:33:26;6.70;66.00
16287;DHT22;8251;53.568;10.018;2023-02-28T03:36:00;6.70;66.20
16287;DHT22;8251;53.568;10.018;2023-02-28T03:38:38;6.70;65.60
16287;DHT22;8251;53.568;10.018;2023-02-28T03:41:14;6.60;65.50
16287;DHT22;8251;53.568;10.018;2023-02-28T03:43:46;6.60;65.90
16287;DHT22;8251;53.568;10.018;2023-02-28T03:46:21;6.60;66.10
16287;DHT22;8251;53.568;10.018;2023-02-28T03:48:55;6.60;65.90
16287;DHT22;8251;53.568;10.018;2023-02-28T03:51:27;6.60;65.90
16287;DHT22;8251;53.568;10.018;2023-02-28T03:54:09;6.50;66.10
16287;DHT22;8251;53.568;10.018;2023-02-28T03:56:51;6.50;66.10
16287;DHT22;8251;53.568;10.018;2023-02-28T03:59:25;6.50;66.30
16287;DHT22;8251;53.568;10.018;2023-02-28T04:01:53;6.40;66.20
16287;DHT22;8251;53.568;10.018;2023-02-28T04:04:25;6.40;66.60
16287;DHT22;8251;53.568;10.018;2023-02-28T04:07:02;6.40;66.50
16287;DHT22;8251;53.568;10.018;2023-02-28T04:09:34;6.40;66.40
16287;DHT22;8251;53.568;10.018;2023-02-28T04:12:09;6.40;66.60
16287;DHT22;8251;53.568;10.018;2023-02-28T04:14:38;6.40;67.00
16287;DHT22;8251;53.568;10.018;2023-02-28T04:17:05;6.40;67.60
16287;DHT22;8251;53.568;10.018;2023-02-28T04:19:34;6.30;66.80
16287;DHT22;8251;53.568;10.018;2023-02-28T04:22:04;6.30;66.90
16287;DHT22;8251;53.568;10.018;2023-02-28T04:24:36;6.20;67.20
16287;DHT22;8251;53.568;10.018;2023-02-28T04:27:10;6.20;67.40
16287;DHT22;8251;53.568;10.018;2023-02-28T04:29:38;6.10;67.60
16287;DHT22;8251;53.568;10.018;2023-02-28T04:32:07;6.10;67.90
16287;DHT22;8251;53.568;10.018;2023-02-28T04:34:38;6.10;68.20
16287;DHT22;8251;53.568;10.018;2023-02-28T04:37:06;6.10;68.30
16287;DHT22;8251;53.568;10.018;2023-02-28T04:39:41;6.10;68.20
16287;DHT22;8251;53.568;10.018;2023-02-28T04:42:24;6.00;68.20
16287;DHT22;8251;53.568;10.018;2023-02-28T04:45:02;6.00;68.20
16287;DHT22;8251;53.568;10.018;2023-02-28T04:47:29;6.00;68.30
16287;DHT22;8251;53.568;10.018;2023-02-28T04:50:05;5.90;68.50
16287;DHT22;8251;53.568;10.018;2023-02-28T04:52:35;5.70;68.60
16287;DHT22;8251;53.568;10.018;2023-02-28T04:55:09;5.90;68.80
16287;DHT22;8251;53.568;10.018;2023-02-28T04:57:39;5.80;69.00
16287;DHT22;8251;53.568;10.018;2023-02-28T05:00:12;5.80;69.30
16287;DHT22;8251;53.568;10.018;2023-02-28T05:02:42;5.70;69.30
16287;DHT22;8251;53.568;10.018;2023-02-28T05:05:09;5.70;70.20
16287;DHT22;8251;53.568;10.018;2023-02-28T05:07:43;5.70;69.70
16287;DHT22;8251;53.568;10.018;2023-02-28T05:10:20;5.60;69.90
16287;DHT22;8251;53.568;10.018;2023-02-28T05:12:48;5.60;70.10
16287;DHT22;8251;53.568;10.018;2023-02-28T05:15:20;5.60;70.30
16287;DHT22;8251;53.568;10.018;2023-02-28T05:17:50;5.60;70.50
16287;DHT22;8251;53.568;10.018;2023-02-28T05:20:19;5.50;70.40
16287;DHT22;8251;53.568;10.018;2023-02-28T05:22:50;5.50;70.30
16287;DHT22;8251;53.568;10.018;2023-02-28T05:25:30;5.50;70.70
16287;DHT22;8251;53.568;10.018;2023-02-28T05:27:59;5.50;70.90
16287;DHT22;8251;53.568;10.018;2023-02-28T05:30:28;5.50;70.90
16287;DHT22;8251;53.568;10.018;2023-02-28T05:32:59;5.50;71.00
16287;DHT22;8251;53.568;10.018;2023-02-28T05:35:30;5.50;71.10
16287;DHT22;8251;53.568;10.018;2023-02-28T05:37:58;5.40;71.40
16287;DHT22;8251;53.568;10.018;2023-02-28T05:40:26;5.50;71.70
16287;DHT22;8251;53.568;10.018;2023-02-28T05:42:54;5.30;71.80
16287;DHT22;8251;53.568;10.018;2023-02-28T05:45:28;5.30;72.00
16287;DHT22;8251;53.568;10.018;2023-02-28T05:47:59;5.30;72.00
16287;DHT22;8251;53.568;10.018;2023-02-28T05:50:30;5.30;72.10
16287;DHT22;8251;53.568;10.018;2023-02-28T05:53:04;5.30;72.10
16287;DHT22;8251;53.568;10.018;2023-02-28T05:55:43;5.30;72.40
16287;DHT22;8251;53.568;10.018;2023-02-28T05:58:13;5.30;72.40
16287;DHT22;8251;53.568;10.018;2023-02-28T06:00:43;5.30;72.60
16287;DHT22;8251;53.568;10.018;2023-02-28T06:03:14;5.30;72.70
16287;DHT22;8251;53.568;10.018;2023-02-28T06:05:45;5.30;72.50
16287;DHT22;8251;53.568;10.018;2023-02-28T06:08:14;5.20;72.60
16287;DHT22;8251;53.568;10.018;2023-02-28T06:11:03;5.20;73.00
16287;DHT22;8251;53.568;10.018;2023-02-28T06:13:38;5.20;72.90
16287;DHT22;8251;53.568;10.018;2023-02-28T06:16:05;5.20;73.00
16287;DHT22;8251;53.568;10.018;2023-02-28T06:18:37;5.20;73.00
16287;DHT22;8251;53.568;10.018;2023-02-28T06:21:12;5.20;73.10
16287;DHT22;8251;53.568;10.018;2023-02-28T06:23:44;5.20;73.30
16287;DHT22;8251;53.568;10.018;2023-02-28T06:26:20;5.20;73.30
16287;DHT22;8251;53.568;10.018;2023-02-28T06:28:47;5.20;73.50
16287;DHT22;8251;53.568;10.018;2023-02-28T06:31:19;5.20;73.40
16287;DHT22;8251;53.568;10.018;2023-02-28T06:33:47;5.20;73.50
16287;DHT22;8251;53.568;10.018;2023-02-28T06:36:22;5.20;73.50
16287;DHT22;8251;53.568;10.018;2023-02-28T06:38:51;5.20;73.50
16287;DHT22;8251;53.568;10.018;2023-02-28T06:41:27;5.20;73.50
16287;DHT22;8251;53.568;10.018;2023-02-28T06:43:57;5.30;73.50
16287;DHT22;8251;53.568;10.018;2023-02-28T06:46:33;5.20;73.70
16287;DHT22;8251;53.568;10.018;2023-02-28T06:49:01;5.20;73.60
16287;DHT22;8251;53.568;10.018;2023-02-28T06:51:31;5.30;73.60
16287;DHT22;8251;53.568;10.018;2023-02-28T06:54:05;5.30;73.70
16287;DHT22;8251;53.568;10.018;2023-02-28T06:56:41;5.30;73.70
16287;DHT22;8251;53.568;10.018;2023-02-28T06:59:13;5.30;73.50
16287;DHT22;8251;53.568;10.018;2023-02-28T07:01:45;5.30;73.70
16287;DHT22;8251;53.568;10.018;2023-02-28T07:04:22;5.30;73.70
16287;DHT22;8251;53.568;10.018;2023-02-28T07:06:53;5.30;73.30
16287;DHT22;8251;53.568;10.018;2023-02-28T07:09:23;5.30;73.90
16287;DHT22;8251;53.568;10.018;2023-02-28T07:12:02;5.30;74.00
16287;DHT22;8251;53.568;10.018;2023-02-28T07:14:33;5.40;74.00
16287;DHT22;8251;53.568;10.018;2023-02-28T07:17:02;5.40;74.10
16287;DHT22;8251;53.568;10.018;2023-02-28T07:19:31;5.40;74.10
16287;DHT22;8251;53.568;10.018;2023-02-28T07:22:00;5.50;74.10
16287;DHT22;8251;53.568;10.018;2023-02-28T07:24:31;5.50;74.10
16287;DHT22;8251;53.568;10.018;2023-02-28T07:27:03;5.50;74.20
16287;DHT22;8251;53.568;10.018;2023-02-28T07:29:31;5.60;74.20
16287;DHT22;8251;53.568;10.018;2023-02-28T07:32:02;5.60;74.10
16287;DHT22;8251;53.568;10.018;2023-02-28T07:34:37;5.70;74.40
16287;DHT22;8251;53.568;10.018;2023-02-28T07:37:10;5.70;74.30
16287;DHT22;8251;53.568;10.018;2023-02-28T07:39:42;5.80;74.20
16287;DHT22;8251;53.568;10.018;2023-02-28T07:42:14;5.80;74.10
16287;DHT22;8251;53.568;10.018;2023-02-28T07:44:45;5.90;74.00
16287;DHT22;8251;53.568;10.018;2023-02-28T07:47:18;5.90;73.90
16287;DHT22;8251;53.568;10.018;2023-02-28T07:49:52;6.00;73.80
16287;DHT22;8251;53.568;10.018;2023-02-28T07:52:23;6.00;73.60
16287;DHT22;8251;53.568;10.018;2023-02-28T07:54:53;6.00;73.30
16287;DHT22;8251;53.568;10.018;2023-02-28T07:57:26;6.10;73.20
16287;DHT22;8251;53.568;10.018;2023-02-28T07:59:55;6.10;73.10
16287;DHT22;8251;53.568;10.018;2023-02-28T08:02:33;6.20;72.90
16287;DHT22;8251;53.568;10.018;2023-02-28T08:05:03;6.20;72.50
16287;DHT22;8251;53.568;10.018;2023-02-28T08:07:32;6.20;71.50
16287;DHT22;8251;53.568;10.018;2023-02-28T08:10:07;6.30;71.00
16287;DHT22;8251;53.568;10.018;2023-02-28T08:12:38;6.30;70.90
16287;DHT22;8251;53.568;10.018;2023-02-28T08:15:10;6.40;70.70
16287;DHT22;8251;53.568;10.018;2023-02-28T08:17:43;6.50;70.70
16287;DHT22;8251;53.568;10.018;2023-02-28T08:20:20;6.60;70.30
16287;DHT22;8251;53.568;10.018;2023-02-28T08:22:55;6.70;70.40
16287;DHT22;8251;53.568;10.018;2023-02-28T08:25:24;6.80;70.00
16287;DHT22;8251;53.568;10.018;2023-02-28T08:27:57;7.10;69.80
16287;DHT22;8251;53.568;10.018;2023-02-28T08:30:26;7.40;69.70
16287;DHT22;8251;53.568;10.018;2023-02-28T08:32:55;8.10;68.70
16287;DHT22;8251;53.568;10.018;2023-02-28T08:35:30;8.90;66.90
16287;DHT22;8251;53.568;10.018;2023-02-28T08:37:59;10.10;64.40
16287;DHT22;8251;53.568;10.018;2023-02-28T08:40:29;11.30;61.00
16287;DHT22;8251;53.568;10.018;2023-02-28T08:43:16;12.50;57.50
16287;DHT22;8251;53.568;10.018;2023-02-28T08:45:44;13.70;54.20
16287;DHT22;8251;53.568;10.018;2023-02-28T08:48:14;14.40;52.10
16287;DHT22;8251;53.568;10.018;2023-02-28T08:50:56;14.90;50.20
16287;DHT22;8251;53.568;10.018;2023-02-28T08:53:30;15.30;48.40
16287;DHT22;8251;53.568;10.018;2023-02-28T08:56:02;15.80;47.40
16287;DHT22;8251;53.568;10.018;2023-02-28T08:58:33;16.30;45.70
16287;DHT22;8251;53.568;10.018;2023-02-28T09:01:06;16.80;44.10
16287;DHT22;8251;53.568;10.018;2023-02-28T09:03:35;17.20;43.60
16287;DHT22;8251;53.568;10.018;2023-02-28T09:06:04;17.50;42.30
16287;DHT22;8251;53.568;10.018;2023-02-28T09:08:34;17.70;41.70
16287;DHT22;8251;53.568;10.018;2023-02-28T09:11:07;17.80;40.80
16287;DHT22;8251;53.568;10.018;2023-02-28T09:13:53;17.70;40.70
16287;DHT22;8251;53.568;10.018;2023-02-28T09:16:28;17.50;39.60
16287;DHT22;8251;53.568;10.018;2023-02-28T09:19:04;17.10;40.90
16287;DHT22;8251;53.568;10.018;2023-02-28T09:21:38;16.70;41.10
16287;DHT22;8251;53.568;10.018;2023-02-28T09:24:08;16.30;41.90
16287;DHT22;8251;53.568;10.018;2023-02-28T09:26:41;15.90;42.80
16287;DHT22;8251;53.568;10.018;2023-02-28T09:29:20;15.60;43.00
16287;DHT22;8251;53.568;10.018;2023-02-28T09:31:47;15.20;43.30
16287;DHT22;8251;53.568;10.018;2023-02-28T09:34:17;15.00;43.60
16287;DHT22;8251;53.568;10.018;2023-02-28T09:36:50;14.80;42.80
16287;DHT22;8251;53.568;10.018;2023-02-28T09:39:22;14.50;42.60
16287;DHT22;8251;53.568;10.018;2023-02-28T09:41:52;14.50;43.20
16287;DHT22;8251;53.568;10.018;2023-02-28T09:44:31;14.60;42.40
16287;DHT22;8251;53.568;10.018;2023-02-28T09:47:05;14.70;42.70
16287;DHT22;8251;53.568;10.018;2023-02-28T09:49:46;14.80;43.10
16287;DHT22;8251;53.568;10.018;2023-02-28T09:52:20;15.10;42.90
16287;DHT22;8251;53.568;10.018;2023-02-28T09:54:49;15.50;42.00
16287;DHT22;8251;53.568;10.018;2023-02-28T09:57:31;15.90;41.00
16287;DHT22;8251;53.568;10.018;2023-02-28T10:00:24;16.10;39.80
16287;DHT22;8251;53.568;10.018;2023-02-28T10:03:29;16.50;39.20
16287;DHT22;8251;53.568;10.018;2023-02-28T10:06:04;16.70;38.30
16287;DHT22;8251;53.568;10.018;2023-02-28T10:08:43;16.80;38.20
16287;DHT22;8251;53.568;10.018;2023-02-28T10:11:17;16.90;38.80
16287;DHT22;8251;53.568;10.018;2023-02-28T10:13:54;16.90;38.60
16287;DHT22;8251;53.568;10.018;2023-02-28T10:16:32;16.90;39.00
16287;DHT22;8251;53.568;10.018;2023-02-28T10:19:09;16.90;38.20
16287;DHT22;8251;53.568;10.018;2023-02-28T10:21:46;16.80;37.80
16287;DHT22;8251;53.568;10.018;2023-02-28T10:24:23;16.80;37.70
16287;DHT22;8251;53.568;10.018;2023-02-28T10:26:59;16.70;38.20
16287;DHT22;8251;53.568;10.018;2023-02-28T10:29:36;16.70;38.50
16287;DHT22;8251;53.568;10.018;2023-02-28T10:32:12;16.60;38.90
16287;DHT22;8251;53.568;10.018;2023-02-28T10:34:41;16.60;38.20
16287;DHT22;8251;53.568;10.018;2023-02-28T10:37:14;16.60;38.40
16287;DHT22;8251;53.568;10.018;2023-02-28T10:39:49;16.50;38.00
16287;DHT22;8251;53.568;10.018;2023-02-28T10:42:25;16.50;38.10
16287;DHT22;8251;53.568;10.018;2023-02-28T10:45:12;16.70;37.40
16287;DHT22;8251;53.568;10.018;2023-02-28T10:47:53;16.90;37.10
16287;DHT22;8251;53.568;10.018;2023-02-28T10:50:30;17.00;37.00
16287;DHT22;8251;53.568;10.018;2023-02-28T10:53:24;17.00;36.80
16287;DHT22;8251;53.568;10.018;2023-02-28T10:56:01;17.00;36.20
16287;DHT22;8251;53.568;10.018;2023-02-28T10:58:44;16.80;36.40
16287;DHT22;8251;53.568;10.018;2023-02-28T11:01:16;16.70;36.80
16287;DHT22;8251;53.568;10.018;2023-02-28T11:04:02;16.60;36.80
16287;DHT22;8251;53.568;10.018;2023-02-28T11:06:34;16.40;36.70
16287;DHT22;8251;53.568;10.018;2023-02-28T11:09:06;16.20;37.60
16287;DHT22;8251;53.568;10.018;2023-02-28T11:11:47;16.00;38.00
16287;DHT22;8251;53.568;10.018;2023-02-28T11:14:20;15.90;38.80
16287;DHT22;8251;53.568;10.018;2023-02-28T11:17:02;15.90;38.60
16287;DHT22;8251;53.568;10.018;2023-02-28T11:19:46;15.80;38.70
16287;DHT22;8251;53.568;10.018;2023-02-28T11:22:20;15.70;38.20
16287;DHT22;8251;53.568;10.018;2023-02-28T11:24:52;15.60;38.50
16287;DHT22;8251;53.568;10.018;2023-02-28T11:27:44;15.60;39.00
16287;DHT22;8251;53.568;10.018;2023-02-28T11:30:34;15.50;37.80
16287;DHT22;8251;53.568;10.018;2023-02-28T11:33:22;15.50;38.80
16287;DHT22;8251;53.568;10.018;2023-02-28T11:35:59;15.40;38.00
16287;DHT22;8251;53.568;10.018;2023-02-28T11:38:36;15.40;38.90
16287;DHT22;8251;53.568;10.018;2023-02-28T11:41:15;15.40;38.80
16287;DHT22;8251;53.568;10.018;2023-02-28T11:44:03;15.40;38.60
16287;DHT22;8251;53.568;10.018;2023-02-28T11:46:39;15.40;38.40
16287;DHT22;8251;53.568;10.018;2023-02-28T11:49:26;15.40;38.90
16287;DHT22;8251;53.568;10.018;2023-02-28T11:52:14;15.50;38.20
16287;DHT22;8251;53.568;10.018;2023-02-28T11:55:06;15.50;38.90
16287;DHT22;8251;53.568;10.018;2023-02-28T11:57:58;15.60;38.70
16287;DHT22;8251;53.568;10.018;2023-02-28T12:00:42;15.60;39.00
16287;DHT22;8251;53.568;10.018;2023-02-28T12:03:25;15.60;39.60
16287;DHT22;8251;53.568;10.018;2023-02-28T12:06:09;15.60;40.00
16287;DHT22;8251;53.568;10.018;2023-02-28T12:08:51;15.70;40.40
16287;DHT22;8251;53.568;10.018;2023-02-28T12:11:38;15.80;39.30
16287;DHT22;8251;53.568;10.018;2023-02-28T12:14:44;15.90;38.10
16287;DHT22;8251;53.568;10.018;2023-02-28T12:17:27;16.00;38.30
16287;DHT22;8251;53.568;10.018;2023-02-28T12:20:08;16.10;37.90
16287;DHT22;8251;53.568;10.018;2023-02-28T12:22:46;16.30;38.00
16287;DHT22;8251;53.568;10.018;2023-02-28T12:25:43;16.40;37.50
16287;DHT22;8251;53.568;10.018;2023-02-28T12:28:24;16.60;37.40
16287;DHT22;8251;53.568;10.018;2023-02-28T12:31:05;16.70;37.60
16287;DHT22;8251;53.568;10.018;2023-02-28T12:33:40;16.80;36.90
16287;DHT22;8251;53.568;10.018;2023-02-28T12:36:23;17.00;37.80
16287;DHT22;8251;53.568;10.018;2023-02-28T12:38:58;17.00;36.50
16287;DHT22;8251;53.568;10.018;2023-02-28T12:41:38;17.10;36.20
16287;DHT22;8251;53.568;10.018;2023-02-28T12:44:12;17.10;35.80
16287;DHT22;8251;53.568;10.018;2023-02-28T12:46:50;17.20;36.00
16287;DHT22;8251;53.568;10.018;2023-02-28T12:49:33;17.20;36.30
16287;DHT22;8251;53.568;10.018;2023-02-28T12:52:09;17.20;36.40
16287;DHT22;8251;53.568;10.018;2023-02-28T12:54:46;17.30;36.30
16287;DHT22;8251;53.568;10.018;2023-02-28T12:57:28;17.40;36.10
16287;DHT22;8251;53.568;10.018;2023-02-28T13:00:12;17.40;35.40
16287;DHT22;8251;53.568;10.018;2023-02-28T13:03:02;17.50;35.80
16287;DHT22;8251;53.568;10.018;2023-02-28T13:09:05;17.40;35.60
16287;DHT22;8251;53.568;10.018;2023-02-28T13:11:42;17.40;34.70
16287;DHT22;8251;53.568;10.018;2023-02-28T13:14:26;17.30;34.90
16287;DHT22;8251;53.568;10.018;2023-02-28T13:17:01;17.10;34.30
16287;DHT22;8251;53.568;10.018;2023-02-28T13:19:36;16.90;35.60
16287;DHT22;8251;53.568;10.018;2023-02-28T13:22:37;16.80;35.90
16287;DHT22;8251;53.568;10.018;2023-02-28T13:38:37;16.00;36.50
16287;DHT22;8251;53.568;10.018;2023-02-28T13:41:46;15.90;36.20
16287;DHT22;8251;53.568;10.018;2023-02-28T13:44:18;15.90;36.40
16287;DHT22;8251;53.568;10.018;2023-02-28T13:47:23;15.70;37.60
16287;DHT22;8251;53.568;10.018;2023-02-28T13:52:47;15.60;37.30
16287;DHT22;8251;53.568;10.018;2023-02-28T13:55:32;15.60;38.10
16287;DHT22;8251;53.568;10.018;2023-02-28T13:58:16;15.60;37.30
16287;DHT22;8251;53.568;10.018;2023-02-28T14:01:07;15.50;36.80
16287;DHT22;8251;53.568;10.018;2023-02-28T14:03:58;15.20;36.90
16287;DHT22;8251;53.568;10.018;2023-02-28T14:06:31;15.00;37.70
16287;DHT22;8251;53.568;10.018;2023-02-28T14:09:06;14.90;38.20
16287;DHT22;8251;53.568;10.018;2023-02-28T14:11:47;14.80;37.60
16287;DHT22;8251;53.568;10.018;2023-02-28T14:17:18;14.70;40.20
16287;DHT22;8251;53.568;10.018;2023-02-28T14:19:48;14.60;40.20
16287;DHT22;8251;53.568;10.018;2023-02-28T14:25:18;14.60;39.70
16287;DHT22;8251;53.568;10.018;2023-02-28T14:28:21;14.50;39.00
16287;DHT22;8251;53.568;10.018;2023-02-28T14:31:03;14.50;40.30
16287;DHT22;8251;53.568;10.018;2023-02-28T14:33:57;14.40;40.20
16287;DHT22;8251;53.568;10.018;2023-02-28T14:36:47;14.30;40.40
16287;DHT22;8251;53.568;10.018;2023-02-28T14:39:19;14.20;39.20
16287;DHT22;8251;53.568;10.018;2023-02-28T14:41:48;14.10;40.10
16287;DHT22;8251;53.568;10.018;2023-02-28T14:44:29;14.10;40.10
16287;DHT22;8251;53.568;10.018;2023-02-28T14:47:00;13.90;40.50
16287;DHT22;8251;53.568;10.018;2023-02-28T14:49:36;13.80;42.20
16287;DHT22;8251;53.568;10.018;2023-02-28T14:52:15;13.80;40.70
16287;DHT22;8251;53.568;10.018;2023-02-28T14:54:59;13.70;41.00
16287;DHT22;8251;53.568;10.018;2023-02-28T14:57:32;13.70;41.80
16287;DHT22;8251;53.568;10.018;2023-02-28T15:00:13;13.70;41.90
16287;DHT22;8251;53.568;10.018;2023-02-28T15:02:44;13.70;41.10
16287;DHT22;8251;53.568;10.018;2023-02-28T15:05:28;13.60;40.50
16287;DHT22;8251;53.568;10.018;2023-02-28T15:08:06;13.60;40.40
16287;DHT22;8251;53.568;10.018;2023-02-28T15:10:40;13.50;39.50
16287;DHT22;8251;53.568;10.018;2023-02-28T15:13:14;13.40;40.40
16287;DHT22;8251;53.568;10.018;2023-02-28T15:15:53;13.30;39.70
16287;DHT22;8251;53.568;10.018;2023-02-28T15:18:31;13.30;40.10
16287;DHT22;8251;53.568;10.018;2023-02-28T15:21:16;13.30;39.30
16287;DHT22;8251;53.568;10.018;2023-02-28T15:23:46;13.20;39.30
16287;DHT22;8251;53.568;10.018;2023-02-28T15:26:22;13.20;39.60
16287;DHT22;8251;53.568;10.018;2023-02-28T15:28:51;13.20;39.20
16287;DHT22;8251;53.568;10.018;2023-02-28T15:31:43;13.10;40.20
16287;DHT22;8251;53.568;10.018;2023-02-28T15:34:20;13.00;39.70
16287;DHT22;8251;53.568;10.018;2023-02-28T15:36:50;12.80;40.00
16287;DHT22;8251;53.568;10.018;2023-02-28T15:39:28;12.80;40.60
16287;DHT22;8251;53.568;10.018;2023-02-28T15:42:17;12.70;39.80
16287;DHT22;8251;53.568;10.018;2023-02-28T15:44:47;12.70;40.00
16287;DHT22;8251;53.568;10.018;2023-02-28T15:47:24;12.70;40.60
16287;DHT22;8251;53.568;10.018;2023-02-28T15:50:05;12.60;40.00
16287;DHT22;8251;53.568;10.018;2023-02-28T15:52:48;12.60;40.70
16287;DHT22;8251;53.568;10.018;2023-02-28T15:55:22;12.50;40.80
16287;DHT22;8251;53.568;10.018;2023-02-28T15:58:02;12.40;40.70
16287;DHT22;8251;53.568;10.018;2023-02-28T16:00:33;12.30;41.30
16287;DHT22;8251;53.568;10.018;2023-02-28T16:03:24;12.20;41.60
16287;DHT22;8251;53.568;10.018;2023-02-28T16:06:30;12.20;42.30
16287;DHT22;8251;53.568;10.018;2023-02-28T16:09:11;12.10;41.80
16287;DHT22;8251;53.568;10.018;2023-02-28T16:11:49;12.00;42.20
16287;DHT22;8251;53.568;10.018;2023-02-28T16:14:22;11.90;42.60
16287;DHT22;8251;53.568;10.018;2023-02-28T16:17:02;11.70;42.90
16287;DHT22;8251;53.568;10.018;2023-02-28T16:19:32;11.70;43.10
16287;DHT22;8251;53.568;10.018;2023-02-28T16:22:02;11.60;43.40
16287;DHT22;8251;53.568;10.018;2023-02-28T16:24:33;11.50;43.50
16287;DHT22;8251;53.568;10.018;2023-02-28T16:27:20;11.50;44.00
16287;DHT22;8251;53.568;10.018;2023-02-28T16:29:53;11.40;44.70
16287;DHT22;8251;53.568;10.018;2023-02-28T16:32:25;11.40;44.10
16287;DHT22;8251;53.568;10.018;2023-02-28T16:35:05;11.30;44.10
16287;DHT22;8251;53.568;10.018;2023-02-28T16:37:35;11.30;44.40
16287;DHT22;8251;53.568;10.018;2023-02-28T16:40:04;11.20;44.30
16287;DHT22;8251;53.568;10.018;2023-02-28T16:42:35;11.10;44.50
16287;DHT22;8251;53.568;10.018;2023-02-28T16:45:08;11.10;44.60
16287;DHT22;8251;53.568;10.018;2023-02-28T16:47:40;11.00;45.00
16287;DHT22;8251;53.568;10.018;2023-02-28T16:50:21;10.90;45.20
16287;DHT22;8251;53.568;10.018;2023-02-28T16:53:01;10.80;45.60
16287;DHT22;8251;53.568;10.018;2023-02-28T16:55:32;10.70;46.00
16287;DHT22;8251;53.568;10.018;2023-02-28T16:58:15;10.70;46.50
16287;DHT22;8251;53.568;10.018;2023-02-28T17:00:58;10.60;47.00
16287;DHT22;8251;53.568;10.018;2023-02-28T17:03:30;10.70;47.30
16287;DHT22;8251;53.568;10.018;2023-02-28T17:06:16;10.70;47.30
16287;DHT22;8251;53.568;10.018;2023-02-28T17:08:47;10.60;47.00
16287;DHT22;8251;53.568;10.018;2023-02-28T17:11:22;10.60;47.00